createdAt,value
2023-04-10T00:00:58.454Z,50.852818
2023-04-10T00:01:58.647Z,50.852779
2023-04-10T00:02:58.519Z,50.852795
2023-04-10T00:03:58.702Z,50.852802
2023-04-10T00:04:58.537Z,50.852787
2023-04-10T00:05:58.578Z,50.852772
2023-04-10T00:06:58.417Z,50.852795
2023-04-10T00:07:58.413Z,50.852806
2023-04-10T00:08:58.393Z,50.852821
2023-04-10T00:09:58.434Z,50.852848
2023-04-10T00:10:58.416Z,50.852798
2023-04-10T00:11:58.411Z,50.852814
2023-04-10T00:12:58.352Z,50.852818
2023-04-10T00:13:58.393Z,50.852848
2023-04-10T00:14:58.360Z,50.852875
2023-04-10T00:15:58.374Z,50.852844
2023-04-10T00:16:58.382Z,50.852856
2023-04-10T00:17:58.387Z,50.852840
2023-04-10T00:18:58.356Z,50.852833
2023-04-10T00:19:58.349Z,50.852825
2023-04-10T00:20:58.310Z,50.852818
2023-04-10T00:21:58.340Z,50.852825
2023-04-10T00:22:58.357Z,50.852818
2023-04-10T00:23:58.339Z,50.852795
2023-04-10T00:24:58.343Z,50.852787
2023-04-10T00:25:58.309Z,50.852802
2023-04-10T00:26:58.272Z,50.852806
2023-04-10T00:27:58.297Z,50.852768
2023-04-10T00:28:58.284Z,50.852764
2023-04-10T00:29:58.279Z,50.852779
2023-04-10T00:30:58.269Z,50.852787
2023-04-10T00:31:58.344Z,50.852783
2023-04-10T00:32:58.279Z,50.852783
2023-04-10T00:33:58.258Z,50.852760
2023-04-10T00:34:58.220Z,50.852757
2023-04-10T00:35:58.253Z,50.852764
2023-04-10T00:36:58.216Z,50.852760
2023-04-10T00:37:58.238Z,50.852764
2023-04-10T00:38:58.233Z,50.852753
2023-04-10T00:39:58.209Z,50.852795
2023-04-10T00:40:58.213Z,50.852798
2023-04-10T00:41:58.193Z,50.852806
2023-04-10T00:42:58.179Z,50.852798
2023-04-10T00:43:58.185Z,50.852802
2023-04-10T00:44:58.166Z,50.852806
2023-04-10T00:45:58.263Z,50.852814
2023-04-10T00:46:58.155Z,50.852814
2023-04-10T00:47:58.221Z,50.852787
2023-04-10T00:48:58.136Z,50.852779
2023-04-10T00:49:58.140Z,50.852768
2023-04-10T00:50:58.122Z,50.852772
2023-04-10T00:51:58.755Z,50.852764
2023-04-10T00:52:58.125Z,50.852757
2023-04-10T00:53:58.133Z,50.852768
2023-04-10T00:54:58.110Z,50.852787
2023-04-10T00:55:58.107Z,50.852764
2023-04-10T00:56:58.143Z,50.852741
2023-04-10T00:57:58.109Z,50.852783
2023-04-10T00:58:58.080Z,50.852829
2023-04-10T00:59:58.084Z,50.852814
2023-04-10T01:00:58.150Z,50.852776
2023-04-10T01:01:58.182Z,50.852795
2023-04-10T01:02:58.186Z,50.852825
2023-04-10T01:03:58.668Z,50.852814
2023-04-10T01:04:58.067Z,50.852806
2023-04-10T01:05:58.065Z,50.852783
2023-04-10T01:06:58.040Z,50.852787
2023-04-10T01:07:58.070Z,50.852795
2023-04-10T01:08:58.014Z,50.852802
2023-04-10T01:09:58.057Z,50.852802
2023-04-10T01:10:58.020Z,50.852821
2023-04-10T01:11:58.036Z,50.852833
2023-04-10T01:12:58.008Z,50.852806
2023-04-10T01:13:58.001Z,50.852798
2023-04-10T01:14:57.992Z,50.852791
2023-04-10T01:15:57.990Z,50.852795
2023-04-10T01:16:58.000Z,50.852791
2023-04-10T01:17:58.008Z,50.852814
2023-04-10T01:18:57.943Z,50.852829
2023-04-10T01:19:57.950Z,50.852818
2023-04-10T01:20:57.932Z,50.852825
2023-04-10T01:21:57.949Z,50.852802
2023-04-10T01:22:57.952Z,50.852829
2023-04-10T01:23:57.949Z,50.852802
2023-04-10T01:24:57.916Z,50.852776
2023-04-10T01:25:57.914Z,50.852760
2023-04-10T01:26:57.891Z,50.852779
2023-04-10T01:27:57.943Z,50.852802
2023-04-10T01:28:57.886Z,50.852806
2023-04-10T01:29:57.888Z,50.852802
2023-04-10T01:30:57.941Z,50.852776
2023-04-10T01:31:57.884Z,50.852795
2023-04-10T01:32:57.914Z,50.852768
2023-04-10T01:33:57.912Z,50.852787
2023-04-10T01:34:57.854Z,50.852798
2023-04-10T01:35:57.883Z,50.852787
2023-04-10T01:36:57.853Z,50.852787
2023-04-10T01:37:57.840Z,50.852776
2023-04-10T01:38:57.813Z,50.852814
2023-04-10T01:39:57.849Z,50.852787
2023-04-10T01:40:57.819Z,50.852772
2023-04-10T01:41:57.814Z,50.852783
2023-04-10T01:42:57.812Z,50.852783
2023-04-10T01:43:57.800Z,50.852825
2023-04-10T01:44:57.769Z,50.852802
2023-04-10T01:45:57.922Z,50.852806
2023-04-10T01:46:57.775Z,50.852791
2023-04-10T01:47:57.875Z,50.852783
2023-04-10T01:48:57.798Z,50.852798
2023-04-10T01:49:57.770Z,50.852779
2023-04-10T01:50:57.720Z,50.852772
2023-04-10T01:51:57.741Z,50.852810
2023-04-10T01:52:57.738Z,50.852818
2023-04-10T01:53:57.750Z,50.852798
2023-04-10T01:54:57.742Z,50.852787
2023-04-10T01:55:57.737Z,50.852833
2023-04-10T01:56:57.735Z,50.852840
2023-04-10T01:57:57.703Z,50.852825
2023-04-10T01:58:57.677Z,50.852848
2023-04-10T01:59:57.687Z,50.852856
2023-04-10T02:00:57.681Z,50.852859
2023-04-10T02:01:57.764Z,50.852802
2023-04-10T02:02:57.798Z,50.852798
2023-04-10T02:03:58.129Z,50.852818
2023-04-10T02:04:57.659Z,50.852840
2023-04-10T02:05:57.665Z,50.852840
2023-04-10T02:06:57.638Z,50.852837
2023-04-10T02:07:57.668Z,50.852837
2023-04-10T02:08:57.608Z,50.852825
2023-04-10T02:09:57.624Z,50.852787
2023-04-10T02:10:57.629Z,50.852802
2023-04-10T02:11:57.648Z,50.852829
2023-04-10T02:12:57.597Z,50.852856
2023-04-10T02:13:57.638Z,50.852783
2023-04-10T02:14:57.639Z,50.852798
2023-04-10T02:15:57.702Z,50.852810
2023-04-10T02:16:57.579Z,50.852818
2023-04-10T02:17:57.633Z,50.852795
2023-04-10T02:18:57.587Z,50.852840
2023-04-10T02:19:57.581Z,50.852848
2023-04-10T02:20:57.606Z,50.852833
2023-04-10T02:21:57.608Z,50.852791
2023-04-10T02:22:57.606Z,50.852795
2023-04-10T02:23:57.584Z,50.852814
2023-04-10T02:24:57.503Z,50.852818
2023-04-10T02:25:57.592Z,50.852837
2023-04-10T02:26:57.509Z,50.852814
2023-04-10T02:27:57.539Z,50.852840
2023-04-10T02:28:57.480Z,50.852848
2023-04-10T02:29:57.512Z,50.852844
2023-04-10T02:30:57.496Z,50.852810
2023-04-10T02:31:57.520Z,50.852779
2023-04-10T02:32:57.492Z,50.852779
2023-04-10T02:33:57.472Z,50.852802
2023-04-10T02:34:57.440Z,50.852818
2023-04-10T02:35:57.472Z,50.852806
2023-04-10T02:36:57.419Z,50.852829
2023-04-10T02:37:57.445Z,50.852837
2023-04-10T02:38:57.430Z,50.852772
2023-04-10T02:39:57.416Z,50.852791
2023-04-10T02:40:57.425Z,50.852787
2023-04-10T02:41:57.397Z,50.852787
2023-04-10T02:42:57.385Z,50.852795
2023-04-10T02:43:57.405Z,50.852818
2023-04-10T02:44:57.371Z,50.852779
2023-04-10T02:45:57.405Z,50.852848
2023-04-10T02:46:57.387Z,50.852764
2023-04-10T02:47:57.414Z,50.852806
2023-04-10T02:48:57.346Z,50.852844
2023-04-10T02:49:57.353Z,50.852825
2023-04-10T02:50:57.348Z,50.852810
2023-04-10T02:51:57.329Z,50.852840
2023-04-10T02:52:57.333Z,50.852810
2023-04-10T02:53:57.353Z,50.852779
2023-04-10T02:54:57.323Z,50.852802
2023-04-10T02:55:57.345Z,50.852829
2023-04-10T02:56:57.302Z,50.852810
2023-04-10T02:57:57.302Z,50.852837
2023-04-10T02:58:57.276Z,50.852798
2023-04-10T02:59:57.277Z,50.852764
2023-04-10T03:00:57.257Z,50.852779
2023-04-10T03:01:57.387Z,50.852760
2023-04-10T03:02:57.326Z,50.852829
2023-04-10T03:03:57.722Z,50.852802
2023-04-10T03:04:57.311Z,50.852802
2023-04-10T03:05:57.251Z,50.852821
2023-04-10T03:06:57.269Z,50.852776
2023-04-10T03:07:57.255Z,50.852875
2023-04-10T03:08:57.207Z,50.852791
2023-04-10T03:09:57.234Z,50.852840
2023-04-10T03:10:57.204Z,50.852848
2023-04-10T03:11:57.228Z,50.852825
2023-04-10T03:12:57.216Z,50.852821
2023-04-10T03:13:57.205Z,50.852859
2023-04-10T03:14:57.176Z,50.852867
2023-04-10T03:15:57.254Z,50.852875
2023-04-10T03:16:57.164Z,50.852810
2023-04-10T03:17:57.226Z,50.852821
2023-04-10T03:18:57.177Z,50.852779
2023-04-10T03:19:57.156Z,50.852787
2023-04-10T03:20:57.153Z,50.852791
2023-04-10T03:21:57.162Z,50.852749
2023-04-10T03:22:57.117Z,50.852840
2023-04-10T03:23:57.149Z,50.852806
2023-04-10T03:24:57.122Z,50.852798
2023-04-10T03:25:57.135Z,50.852814
2023-04-10T03:26:57.096Z,50.852810
2023-04-10T03:27:57.119Z,50.852760
2023-04-10T03:28:57.088Z,50.852741
2023-04-10T03:29:57.093Z,50.852791
2023-04-10T03:30:57.081Z,50.852802
2023-04-10T03:31:57.190Z,50.852818
2023-04-10T03:32:57.057Z,50.852829
2023-04-10T03:33:57.287Z,50.852844
2023-04-10T03:34:57.042Z,50.852844
2023-04-10T03:35:57.109Z,50.852821
2023-04-10T03:36:57.043Z,50.852802
2023-04-10T03:37:57.036Z,50.852833
2023-04-10T03:38:57.017Z,50.852776
2023-04-10T03:39:57.017Z,50.852821
2023-04-10T03:40:57.021Z,50.852867
2023-04-10T03:41:57.028Z,50.852844
2023-04-10T03:42:56.983Z,50.852818
2023-04-10T03:43:57.135Z,50.852837
2023-04-10T03:44:56.969Z,50.852859
2023-04-10T03:45:56.976Z,50.852821
2023-04-10T03:46:57.008Z,50.852825
2023-04-10T03:47:57.048Z,50.852940
2023-04-10T03:48:56.961Z,50.852924
2023-04-10T03:49:56.947Z,50.852829
2023-04-10T03:50:56.936Z,50.852802
2023-04-10T03:51:56.935Z,50.852810
2023-04-10T03:52:56.919Z,50.852818
2023-04-10T03:53:57.073Z,50.852825
2023-04-10T03:54:56.913Z,50.852837
2023-04-10T03:55:56.917Z,50.852829
2023-04-10T03:56:56.888Z,50.852814
2023-04-10T03:57:56.902Z,50.852810
2023-04-10T03:58:56.887Z,50.852821
2023-04-10T03:59:56.877Z,50.852825
2023-04-10T04:00:56.863Z,50.852837
2023-04-10T04:01:56.939Z,50.852821
2023-04-10T04:02:56.942Z,50.852821
2023-04-10T04:03:57.083Z,50.852818
2023-04-10T04:04:56.902Z,50.852833
2023-04-10T04:05:56.850Z,50.852825
2023-04-10T04:06:56.834Z,50.852821
2023-04-10T04:07:56.831Z,50.852833
2023-04-10T04:08:56.823Z,50.852844
2023-04-10T04:09:56.819Z,50.852840
2023-04-10T04:10:56.831Z,50.852821
2023-04-10T04:11:56.830Z,50.852833
2023-04-10T04:12:56.783Z,50.852821
2023-04-10T04:13:56.820Z,50.852825
2023-04-10T04:14:56.777Z,50.852821
2023-04-10T04:15:56.772Z,50.852798
2023-04-10T04:16:56.869Z,50.852798
2023-04-10T04:17:56.818Z,50.852802
2023-04-10T04:18:56.800Z,50.852806
2023-04-10T04:19:56.761Z,50.852791
2023-04-10T04:20:56.746Z,50.852825
2023-04-10T04:21:56.746Z,50.852821
2023-04-10T04:22:56.720Z,50.852814
2023-04-10T04:23:56.737Z,50.852821
2023-04-10T04:24:56.719Z,50.852791
2023-04-10T04:25:56.717Z,50.852810
2023-04-10T04:26:56.747Z,50.852806
2023-04-10T04:27:56.697Z,50.852787
2023-04-10T04:28:56.677Z,50.852802
2023-04-10T04:29:56.681Z,50.852810
2023-04-10T04:30:56.662Z,50.852814
2023-04-10T04:31:56.711Z,50.852821
2023-04-10T04:32:56.751Z,50.852818
2023-04-10T04:33:56.696Z,50.852833
2023-04-10T04:34:56.649Z,50.852806
2023-04-10T04:35:56.671Z,50.852814
2023-04-10T04:36:56.625Z,50.852814
2023-04-10T04:37:56.652Z,50.852821
2023-04-10T04:38:56.628Z,50.852829
2023-04-10T04:39:56.631Z,50.852825
2023-04-10T04:40:56.648Z,50.852821
2023-04-10T04:41:56.597Z,50.852821
2023-04-10T04:42:56.590Z,50.852814
2023-04-10T04:43:56.670Z,50.852821
2023-04-10T04:44:56.567Z,50.852818
2023-04-10T04:45:56.620Z,50.852818
2023-04-10T04:46:56.578Z,50.852818
2023-04-10T04:47:56.588Z,50.852806
2023-04-10T04:48:56.573Z,50.852806
2023-04-10T04:49:56.569Z,50.852810
2023-04-10T04:50:56.536Z,50.852837
2023-04-10T04:51:56.560Z,50.852814
2023-04-10T04:52:56.536Z,50.852787
2023-04-10T04:53:56.688Z,50.852776
2023-04-10T04:54:56.526Z,50.852806
2023-04-10T04:55:56.538Z,50.852829
2023-04-10T04:56:56.512Z,50.852806
2023-04-10T04:57:56.489Z,50.852840
2023-04-10T04:58:56.571Z,50.852833
2023-04-10T04:59:56.524Z,50.852818
2023-04-10T05:00:56.506Z,50.852814
2023-04-10T05:01:56.663Z,50.852818
2023-04-10T05:02:56.524Z,50.852806
2023-04-10T05:03:56.517Z,50.852829
2023-04-10T05:04:56.445Z,50.852837
2023-04-10T05:05:56.509Z,50.852810
2023-04-10T05:06:56.428Z,50.852814
2023-04-10T05:07:56.450Z,50.852802
2023-04-10T05:08:56.593Z,50.852810
2023-04-10T05:09:56.414Z,50.852798
2023-04-10T05:10:56.401Z,50.852810
2023-04-10T05:11:56.431Z,50.852806
2023-04-10T05:12:56.416Z,50.852795
2023-04-10T05:13:56.399Z,50.852818
2023-04-10T05:14:56.392Z,50.852821
2023-04-10T05:15:56.397Z,50.852825
2023-04-10T05:16:56.379Z,50.852798
2023-04-10T05:17:56.518Z,50.852814
2023-04-10T05:18:56.679Z,50.852806
2023-04-10T05:19:56.383Z,50.852814
2023-04-10T05:20:56.346Z,50.852818
2023-04-10T05:21:56.374Z,50.852829
2023-04-10T05:22:56.340Z,50.852795
2023-04-10T05:23:56.384Z,50.852863
2023-04-10T05:24:56.309Z,50.852848
2023-04-10T05:25:56.339Z,50.852837
2023-04-10T05:26:56.314Z,50.852821
2023-04-10T05:27:56.308Z,50.852867
2023-04-10T05:28:56.532Z,50.852829
2023-04-10T05:29:56.293Z,50.852856
2023-04-10T05:30:56.353Z,50.852776
2023-04-10T05:31:56.290Z,50.852810
2023-04-10T05:32:56.326Z,50.852886
2023-04-10T05:33:56.276Z,50.852821
2023-04-10T05:34:56.259Z,50.852825
2023-04-10T05:35:56.293Z,50.852795
2023-04-10T05:36:58.772Z,50.852814
2023-04-10T05:37:56.247Z,50.852787
2023-04-10T05:38:56.536Z,50.852837
2023-04-10T05:39:56.230Z,50.852810
2023-04-10T05:40:56.239Z,50.852776
2023-04-10T05:41:56.226Z,50.852825
2023-04-10T05:42:56.220Z,50.852810
2023-04-10T05:43:56.219Z,50.852825
2023-04-10T05:44:56.202Z,50.852840
2023-04-10T05:45:56.246Z,50.852814
2023-04-10T05:46:56.196Z,50.852760
2023-04-10T05:47:56.226Z,50.852776
2023-04-10T05:48:56.486Z,50.852798
2023-04-10T05:49:56.173Z,50.852798
2023-04-10T05:50:56.158Z,50.852837
2023-04-10T05:51:56.174Z,50.852821
2023-04-10T05:52:56.151Z,50.852814
2023-04-10T05:53:56.161Z,50.852821
2023-04-10T05:54:56.126Z,50.852833
2023-04-10T05:55:56.138Z,50.852779
2023-04-10T05:56:56.115Z,50.852814
2023-04-10T05:57:56.134Z,50.852783
2023-04-10T05:58:56.213Z,50.852787
2023-04-10T05:59:56.160Z,50.852833
2023-04-10T06:00:56.117Z,50.852818
2023-04-10T06:01:56.155Z,50.852776
2023-04-10T06:02:56.145Z,50.852810
2023-04-10T06:03:56.240Z,50.852795
2023-04-10T06:04:56.159Z,50.852768
2023-04-10T06:05:56.086Z,50.852749
2023-04-10T06:06:56.061Z,50.852791
2023-04-10T06:07:58.192Z,50.852818
2023-04-10T06:08:56.180Z,50.852818
2023-04-10T06:09:56.080Z,50.852852
2023-04-10T06:10:56.054Z,50.852795
2023-04-10T06:11:56.060Z,50.852768
2023-04-10T06:12:56.043Z,50.852776
2023-04-10T06:13:56.039Z,50.852760
2023-04-10T06:14:56.035Z,50.852837
2023-04-10T06:15:56.071Z,50.852844
2023-04-10T06:16:56.004Z,50.852848
2023-04-10T06:17:56.025Z,50.852783
2023-04-10T06:18:56.289Z,50.852825
2023-04-10T06:19:55.997Z,50.852753
2023-04-10T06:21:03.009Z,50.852779
2023-04-10T06:21:56.011Z,50.852760
2023-04-10T06:22:55.963Z,50.852787
2023-04-10T06:23:56.332Z,50.852806
2023-04-10T06:24:55.960Z,50.852852
2023-04-10T06:25:55.985Z,50.852833
2023-04-10T06:26:55.962Z,50.852859
2023-04-10T06:27:55.963Z,50.852821
2023-04-10T06:28:56.150Z,50.852818
2023-04-10T06:29:55.961Z,50.852802
2023-04-10T06:30:55.997Z,50.852821
2023-04-10T06:31:55.997Z,50.852852
2023-04-10T06:32:55.991Z,50.852821
2023-04-10T06:33:55.930Z,50.852844
2023-04-10T06:34:55.896Z,50.852825
2023-04-10T06:35:55.951Z,50.852894
2023-04-10T06:36:56.040Z,50.852833
2023-04-10T06:37:55.874Z,50.852814
2023-04-10T06:38:56.127Z,50.852833
2023-04-10T06:39:55.887Z,50.852795
2023-04-10T06:40:55.841Z,50.852757
2023-04-10T06:41:55.891Z,50.852776
2023-04-10T06:42:55.854Z,50.852798
2023-04-10T06:43:55.844Z,50.852848
2023-04-10T06:44:55.844Z,50.852856
2023-04-10T06:45:55.834Z,50.852871
2023-04-10T06:46:55.858Z,50.852840
2023-04-10T06:47:55.865Z,50.852863
2023-04-10T06:48:55.963Z,50.852825
2023-04-10T06:49:55.827Z,50.852791
2023-04-10T06:50:55.765Z,50.852848
2023-04-10T06:51:55.798Z,50.852863
2023-04-10T06:52:55.810Z,50.852871
2023-04-10T06:53:55.776Z,50.852875
2023-04-10T06:54:55.759Z,50.852840
2023-04-10T06:55:55.771Z,50.852821
2023-04-10T06:56:55.754Z,50.852818
2023-04-10T06:57:55.758Z,50.852787
2023-04-10T06:58:55.953Z,50.852821
2023-04-10T06:59:55.753Z,50.852818
2023-04-10T07:00:55.752Z,50.852776
2023-04-10T07:01:55.756Z,50.852779
2023-04-10T07:02:55.720Z,50.852802
2023-04-10T07:03:55.708Z,50.852814
2023-04-10T07:04:55.686Z,50.852699
2023-04-10T07:05:55.667Z,50.852791
2023-04-10T07:06:55.661Z,50.852757
2023-04-10T07:07:55.678Z,50.852783
2023-04-10T07:08:55.902Z,50.852745
2023-04-10T07:09:55.661Z,50.852821
2023-04-10T07:10:58.312Z,50.852848
2023-04-10T07:11:55.662Z,50.852795
2023-04-10T07:12:55.628Z,50.852821
2023-04-10T07:13:55.622Z,50.852791
2023-04-10T07:14:55.606Z,50.852783
2023-04-10T07:15:55.665Z,50.852760
2023-04-10T07:16:55.571Z,50.852760
2023-04-10T07:17:55.622Z,50.852741
2023-04-10T07:18:55.830Z,50.852760
2023-04-10T07:19:55.586Z,50.852734
2023-04-10T07:20:55.525Z,50.852768
2023-04-10T07:21:55.563Z,50.852787
2023-04-10T07:22:55.520Z,50.852795
2023-04-10T07:23:55.537Z,50.852741
2023-04-10T07:24:55.502Z,50.852779
2023-04-10T07:25:55.529Z,50.852753
2023-04-10T07:26:55.516Z,50.852810
2023-04-10T07:27:55.495Z,50.852768
2023-04-10T07:28:55.701Z,50.852783
2023-04-10T07:29:55.480Z,50.852787
2023-04-10T07:30:55.475Z,50.852745
2023-04-10T07:31:55.585Z,50.852806
2023-04-10T07:32:55.549Z,50.852829
2023-04-10T07:33:55.457Z,50.852783
2023-04-10T07:34:55.444Z,50.852776
2023-04-10T07:35:55.509Z,50.852768
2023-04-10T07:36:55.418Z,50.852787
2023-04-10T07:37:55.440Z,50.852757
2023-04-10T07:38:55.600Z,50.852726
2023-04-10T07:39:55.427Z,50.852718
2023-04-10T07:40:55.387Z,50.852757
2023-04-10T07:41:55.386Z,50.852757
2023-04-10T07:42:55.410Z,50.852753
2023-04-10T07:43:55.408Z,50.852760
2023-04-10T07:44:55.348Z,50.852768
2023-04-10T07:45:55.362Z,50.852764
2023-04-10T07:46:55.331Z,50.852753
2023-04-10T07:47:55.358Z,50.852757
2023-04-10T07:48:55.840Z,50.852757
2023-04-10T07:49:55.312Z,50.852753
2023-04-10T07:50:55.302Z,50.852795
2023-04-10T07:51:55.326Z,50.852802
2023-04-10T07:52:55.300Z,50.852818
2023-04-10T07:53:55.288Z,50.852779
2023-04-10T07:54:55.276Z,50.852779
2023-04-10T07:55:55.299Z,50.852806
2023-04-10T07:56:55.249Z,50.852779
2023-04-10T07:57:55.273Z,50.852776
2023-04-10T07:58:55.484Z,50.852787
2023-04-10T07:59:55.249Z,50.852791
2023-04-10T08:00:55.256Z,50.852779
2023-04-10T08:01:55.274Z,50.852768
2023-04-10T08:02:55.384Z,50.852760
2023-04-10T08:03:55.317Z,50.852772
2023-04-10T08:04:55.553Z,50.852768
2023-04-10T08:05:55.234Z,50.852760
2023-04-10T08:06:55.199Z,50.852787
2023-04-10T08:07:55.187Z,50.852798
2023-04-10T08:08:55.346Z,50.852768
2023-04-10T08:09:55.171Z,50.852776
2023-04-10T08:10:55.164Z,50.852821
2023-04-10T08:11:55.175Z,50.852768
2023-04-10T08:12:55.133Z,50.852722
2023-04-10T08:13:55.246Z,50.852760
2023-04-10T08:14:55.123Z,50.852760
2023-04-10T08:15:55.162Z,50.852741
2023-04-10T08:16:55.146Z,50.852722
2023-04-10T08:17:55.197Z,50.852760
2023-04-10T08:18:55.250Z,50.852783
2023-04-10T08:19:55.110Z,50.852760
2023-04-10T08:20:55.120Z,50.852753
2023-04-10T08:21:55.077Z,50.852760
2023-04-10T08:22:56.254Z,50.852764
2023-04-10T08:23:55.082Z,50.852760
2023-04-10T08:24:55.061Z,50.852734
2023-04-10T08:25:55.074Z,50.852741
2023-04-10T08:26:55.087Z,50.852741
2023-04-10T08:27:55.051Z,50.852783
2023-04-10T08:28:55.151Z,50.852779
2023-04-10T08:29:55.018Z,50.852810
2023-04-10T08:30:55.103Z,50.852814
2023-04-10T08:31:55.025Z,50.852798
2023-04-10T08:32:55.006Z,50.852787
2023-04-10T08:33:55.355Z,50.852772
2023-04-10T08:34:54.990Z,50.852757
2023-04-10T08:35:55.009Z,50.852779
2023-04-10T08:36:55.019Z,50.852783
2023-04-10T08:38:11.678Z,50.852779
2023-04-10T08:38:55.976Z,50.852768
2023-04-10T08:39:54.966Z,50.852749
2023-04-10T08:40:54.926Z,50.852749
2023-04-10T08:41:54.949Z,50.852757
2023-04-10T08:42:54.915Z,50.852783
2023-04-10T08:43:55.227Z,50.852776
2023-04-10T08:44:54.910Z,50.852749
2023-04-10T08:45:54.962Z,50.852783
2023-04-10T08:46:54.897Z,50.852776
2023-04-10T08:47:54.915Z,50.852734
2023-04-10T08:48:54.853Z,50.852757
2023-04-10T08:49:54.874Z,50.852760
2023-04-10T08:50:54.850Z,50.852749
2023-04-10T08:51:54.898Z,50.852753
2023-04-10T08:52:54.841Z,50.852737
2023-04-10T08:53:55.000Z,50.852734
2023-04-10T08:54:54.824Z,50.852795
2023-04-10T08:55:54.833Z,50.852791
2023-04-10T08:56:54.826Z,50.852779
2023-04-10T08:58:01.075Z,50.852795
2023-04-10T08:58:55.796Z,50.852787
2023-04-10T08:59:54.815Z,50.852825
2023-04-10T09:00:54.819Z,50.852814
2023-04-10T09:01:54.892Z,50.852798
2023-04-10T09:02:54.947Z,50.852810
2023-04-10T09:03:55.127Z,50.852798
2023-04-10T09:04:54.978Z,50.852802
2023-04-10T09:05:54.765Z,50.852814
2023-04-10T09:06:54.753Z,50.852795
2023-04-10T09:07:54.805Z,50.852806
2023-04-10T09:08:54.757Z,50.852795
2023-04-10T09:09:54.763Z,50.852772
2023-04-10T09:10:56.328Z,50.852768
2023-04-10T09:11:54.729Z,50.852757
2023-04-10T09:12:54.749Z,50.852810
2023-04-10T09:13:54.890Z,50.852768
2023-04-10T09:14:54.703Z,50.852795
2023-04-10T09:15:54.812Z,50.852795
2023-04-10T09:16:54.685Z,50.852772
2023-04-10T09:17:54.724Z,50.852749
2023-04-10T09:18:54.666Z,50.852757
2023-04-10T09:19:54.702Z,50.852757
2023-04-10T09:20:54.635Z,50.852757
2023-04-10T09:21:54.690Z,50.852734
2023-04-10T09:22:54.641Z,50.852745
2023-04-10T09:23:54.942Z,50.852760
2023-04-10T09:24:54.648Z,50.852730
2023-04-10T09:25:54.621Z,50.852749
2023-04-10T09:26:54.584Z,50.852757
2023-04-10T09:27:54.603Z,50.852768
2023-04-10T09:28:54.571Z,50.852779
2023-04-10T09:29:54.584Z,50.852791
2023-04-10T09:30:54.619Z,50.852779
2023-04-10T09:31:54.602Z,50.852787
2023-04-10T09:32:54.621Z,50.852795
2023-04-10T09:33:54.695Z,50.852757
2023-04-10T09:34:54.543Z,50.852760
2023-04-10T09:35:54.536Z,50.852764
2023-04-10T09:36:54.516Z,50.852779
2023-04-10T09:37:54.577Z,50.852806
2023-04-10T09:38:54.506Z,50.852779
2023-04-10T09:39:54.529Z,50.852798
2023-04-10T09:40:54.938Z,50.852802
2023-04-10T09:41:54.510Z,50.852798
2023-04-10T09:42:54.471Z,50.852798
2023-04-10T09:43:54.768Z,50.852787
2023-04-10T09:44:54.466Z,50.852772
2023-04-10T09:45:54.500Z,50.852787
2023-04-10T09:46:54.722Z,50.852783
2023-04-10T09:47:54.530Z,50.852779
2023-04-10T09:48:54.433Z,50.852779
2023-04-10T09:49:54.465Z,50.852791
2023-04-10T09:50:54.417Z,50.852802
2023-04-10T09:51:54.492Z,50.852791
2023-04-10T09:52:54.437Z,50.852787
2023-04-10T09:53:54.531Z,50.852825
2023-04-10T09:54:54.441Z,50.852795
2023-04-10T09:55:54.400Z,50.852795
2023-04-10T09:56:54.379Z,50.852768
2023-04-10T09:57:54.401Z,50.852779
2023-04-10T09:58:54.564Z,50.852791
2023-04-10T09:59:54.425Z,50.852802
2023-04-10T10:00:54.359Z,50.852791
2023-04-10T10:01:54.425Z,50.852798
2023-04-10T10:02:54.510Z,50.852798
2023-04-10T10:03:54.434Z,50.852802
2023-04-10T10:04:54.370Z,50.852795
2023-04-10T10:05:54.337Z,50.852779
2023-04-10T10:06:54.322Z,50.852810
2023-04-10T10:07:54.305Z,50.852798
2023-04-10T10:08:54.568Z,50.852833
2023-04-10T10:09:54.339Z,50.852810
2023-04-10T10:10:54.310Z,50.852798
2023-04-10T10:11:54.295Z,50.852791
2023-04-10T10:12:54.295Z,50.852791
2023-04-10T10:13:54.320Z,50.852818
2023-04-10T10:14:54.255Z,50.852795
2023-04-10T10:15:54.289Z,50.852768
2023-04-10T10:16:54.267Z,50.852760
2023-04-10T10:17:54.279Z,50.852779
2023-04-10T10:18:54.483Z,50.852734
2023-04-10T10:19:54.217Z,50.852726
2023-04-10T10:20:54.211Z,50.852779
2023-04-10T10:21:54.231Z,50.852806
2023-04-10T10:22:54.198Z,50.852749
2023-04-10T10:23:54.250Z,50.852745
2023-04-10T10:24:54.172Z,50.852783
2023-04-10T10:25:54.178Z,50.852772
2023-04-10T10:26:54.155Z,50.852741
2023-04-10T10:27:54.186Z,50.852768
2023-04-10T10:28:54.490Z,50.852783
2023-04-10T10:29:54.145Z,50.852772
2023-04-10T10:30:54.134Z,50.852734
2023-04-10T10:31:54.284Z,50.852730
2023-04-10T10:32:54.164Z,50.852768
2023-04-10T10:33:54.143Z,50.852776
2023-04-10T10:34:54.101Z,50.852757
2023-04-10T10:35:54.105Z,50.852753
2023-04-10T10:36:54.120Z,50.852787
2023-04-10T10:37:54.109Z,50.852787
2023-04-10T10:38:54.278Z,50.852772
2023-04-10T10:39:54.087Z,50.852749
2023-04-10T10:40:54.057Z,50.852779
2023-04-10T10:41:54.069Z,50.852764
2023-04-10T10:42:54.036Z,50.852810
2023-04-10T10:43:54.063Z,50.852814
2023-04-10T10:44:54.053Z,50.852779
2023-04-10T10:45:54.063Z,50.852814
2023-04-10T10:46:54.021Z,50.852776
2023-04-10T10:47:54.036Z,50.852791
2023-04-10T10:48:54.188Z,50.852776
2023-04-10T10:49:54.054Z,50.852802
2023-04-10T10:50:54.047Z,50.852806
2023-04-10T10:51:53.994Z,50.852776
2023-04-10T10:52:53.980Z,50.852772
2023-04-10T10:53:53.979Z,50.852779
2023-04-10T10:54:59.425Z,50.852772
2023-04-10T10:55:54.989Z,50.852791
2023-04-10T10:56:53.928Z,50.852787
2023-04-10T10:57:53.959Z,50.852779
2023-04-10T10:58:54.261Z,50.852806
2023-04-10T10:59:53.922Z,50.852798
2023-04-10T11:00:53.913Z,50.852783
2023-04-10T11:01:54.103Z,50.852757
2023-04-10T11:02:54.014Z,50.852757
2023-04-10T11:03:54.083Z,50.852768
2023-04-10T11:04:53.892Z,50.852787
2023-04-10T11:05:53.903Z,50.852787
2023-04-10T11:06:53.896Z,50.852779
2023-04-10T11:07:53.895Z,50.852776
2023-04-10T11:08:54.076Z,50.852798
2023-04-10T11:09:53.887Z,50.852798
2023-04-10T11:10:53.835Z,50.852779
2023-04-10T11:11:53.848Z,50.852791
2023-04-10T11:12:53.844Z,50.852798
2023-04-10T11:13:53.862Z,50.852806
2023-04-10T11:14:53.798Z,50.852818
2023-04-10T11:15:53.826Z,50.852818
2023-04-10T11:16:53.848Z,50.852791
2023-04-10T11:17:53.835Z,50.852791
2023-04-10T11:19:06.261Z,50.852791
2023-04-10T11:19:53.786Z,50.852810
2023-04-10T11:20:53.769Z,50.852821
2023-04-10T11:21:53.788Z,50.852810
2023-04-10T11:22:53.741Z,50.852837
2023-04-10T11:23:53.779Z,50.852837
2023-04-10T11:24:53.736Z,50.852825